Time;durP1;ratioP1;P1;durP2;ratioP2;P2;SDS_P1;SDS_P2;PMS_P1;PMS_P2;Temp;Humidity;BMP_temperature;BMP_pressure;BME280_temperature;BME280_humidity;BME280_pressure;Samples;Min_cycle;Max_cycle;Signal;HPM_P1;HPM_P2
2022/05/22 00:03:08;;;;;;;2.80;1.90;;;;;;;11.80;74.28;99542.23;214200;1274;140553;-61
2022/05/22 00:08:11;;;;;;;2.30;2.00;;;;;;;11.72;74.32;99542.99;213654;1274;140073;-61
2022/05/22 00:13:13;;;;;;;3.70;2.00;;;;;;;11.66;74.37;99537.61;213776;1273;140821;-61
2022/05/22 00:18:17;;;;;;;1.90;1.70;;;;;;;11.64;74.41;99535.45;214632;1274;143159;-61
2022/05/22 00:23:20;;;;;;;2.20;2.10;;;;;;;11.60;74.61;99535.40;214425;1274;139542;-59
2022/05/22 00:28:24;;;;;;;4.90;2.30;;;;;;;11.54;74.72;99533.56;214431;1274;139090;-62
2022/05/22 00:33:27;;;;;;;3.20;2.00;;;;;;;11.49;74.54;99527.94;213360;1274;140331;-61
2022/05/22 00:38:32;;;;;;;3.00;1.80;;;;;;;11.48;74.63;99526.55;214631;1274;141898;-60
2022/05/22 00:43:42;;;;;;;1.60;1.50;;;;;;;11.43;74.45;99524.59;214879;1274;139885;-61
2022/05/22 00:48:49;;;;;;;2.90;1.80;;;;;;;11.36;74.37;99527.30;213721;1274;139947;-61
2022/05/22 00:54:05;;;;;;;7.30;1.40;;;;;;;11.29;74.16;99532.13;215451;1274;141003;-61
2022/05/22 00:59:15;;;;;;;4.20;2.70;;;;;;;11.24;74.28;99534.58;216302;1273;140021;-62
2022/05/22 01:04:25;;;;;;;2.40;0.90;;;;;;;11.27;74.31;99533.17;216376;1274;140582;-61
2022/05/22 01:09:27;;;;;;;1.90;1.80;;;;;;;11.38;74.34;99535.92;214172;1274;142628;-61
2022/05/22 01:14:32;;;;;;;1.70;1.40;;;;;;;11.48;74.43;99535.39;216190;1274;140677;-62
2022/05/22 01:19:35;;;;;;;1.10;1.00;;;;;;;11.52;74.46;99534.02;215199;1274;139059;-62
2022/05/22 01:24:37;;;;;;;1.80;1.00;;;;;;;11.53;74.23;99533.86;215053;1274;139490;-62
2022/05/22 01:29:41;;;;;;;3.20;1.20;;;;;;;11.52;74.07;99534.34;214555;1272;141372;-62
2022/05/22 01:34:43;;;;;;;1.20;1.20;;;;;;;11.52;74.14;99527.12;213368;1274;140549;-62
2022/05/22 01:39:46;;;;;;;3.80;1.50;;;;;;;11.48;74.05;99523.43;214104;1274;150792;-63
2022/05/22 01:44:49;;;;;;;3.70;1.50;;;;;;;11.42;74.11;99523.71;213648;1273;140255;-64
2022/05/22 01:49:53;;;;;;;2.80;1.30;;;;;;;11.44;73.97;99524.61;213488;1274;141376;-63
2022/05/22 01:54:57;;;;;;;2.30;1.40;;;;;;;11.47;74.06;99521.34;212987;1274;142636;-63
2022/05/22 01:59:59;;;;;;;2.10;1.90;;;;;;;11.44;73.96;99521.56;213341;1276;141350;-62
2022/05/22 02:05:03;;;;;;;1.10;1.10;;;;;;;11.39;73.84;99517.42;213308;1274;141823;-62
2022/05/22 02:10:06;;;;;;;1.80;1.20;;;;;;;11.38;73.54;99520.40;213387;1274;141703;-62
2022/05/22 02:15:10;;;;;;;2.40;2.20;;;;;;;11.35;73.72;99518.86;213678;1274;140007;-63
2022/05/22 02:20:13;;;;;;;5.70;1.80;;;;;;;11.33;73.68;99521.55;214456;1274;139675;-62
2022/05/22 02:25:19;;;;;;;2.20;1.90;;;;;;;11.32;73.75;99525.11;213206;1274;140781;-63
2022/05/22 02:30:30;;;;;;;2.60;1.60;;;;;;;11.40;73.86;99521.39;214063;1276;140661;-62
2022/05/22 02:35:33;;;;;;;2.10;1.70;;;;;;;11.44;73.91;99524.13;213710;1274;140740;-62
2022/05/22 02:40:38;;;;;;;1.90;1.70;;;;;;;11.39;73.84;99515.03;213123;1277;141392;-62
2022/05/22 02:45:43;;;;;;;2.20;1.50;;;;;;;11.36;73.96;99514.08;213895;1277;140376;-63
2022/05/22 02:50:46;;;;;;;1.70;1.50;;;;;;;11.42;74.18;99517.59;214263;1274;140892;-62
2022/05/22 02:55:49;;;;;;;2.90;2.00;;;;;;;11.47;74.17;99519.36;215612;1274;141250;-62
2022/05/22 03:00:51;;;;;;;3.30;1.70;;;;;;;11.52;74.32;99525.48;213479;1274;140920;-62
2022/05/22 03:11:16;;;;;;;2.20;2.10;;;;;;;11.62;74.54;99512.15;213767;1274;142635;-63
2022/05/22 03:16:20;;;;;;;2.20;2.00;;;;;;;11.67;74.59;99518.08;214869;1276;139805;-64
2022/05/22 03:21:23;;;;;;;4.00;2.40;;;;;;;11.65;74.71;99515.16;215854;1274;139141;-64
2022/05/22 03:26:26;;;;;;;3.30;2.60;;;;;;;11.65;74.74;99514.26;215224;1274;139882;-62
2022/05/22 03:31:32;;;;;;;3.50;2.50;;;;;;;11.72;74.79;99510.52;213880;1277;141577;-63
2022/05/22 03:36:39;;;;;;;2.90;2.40;;;;;;;11.75;74.78;99514.94;214769;1274;139752;-64
2022/05/22 03:41:43;;;;;;;3.30;2.80;;;;;;;11.75;74.61;99512.77;213219;1274;140446;-63
2022/05/22 03:46:46;;;;;;;3.00;2.70;;;;;;;11.75;74.36;99517.19;213683;1274;142119;-62
2022/05/22 03:51:50;;;;;;;5.70;3.10;;;;;;;11.78;74.54;99516.98;214113;1276;141323;-64
2022/05/22 03:56:54;;;;;;;3.20;2.80;;;;;;;11.76;74.65;99525.11;213255;1275;141301;-63
2022/05/22 04:01:56;;;;;;;4.10;2.70;;;;;;;11.74;74.77;99522.56;213457;1274;142095;-62
2022/05/22 04:06:59;;;;;;;6.10;3.60;;;;;;;11.88;74.70;99523.36;213649;1274;140047;-61
2022/05/22 04:12:09;;;;;;;3.00;2.60;;;;;;;12.09;74.54;99523.88;213699;1275;140480;-63
2022/05/22 04:17:12;;;;;;;4.10;2.70;;;;;;;12.45;73.76;99509.83;214109;1276;140396;-62
2022/05/22 04:22:16;;;;;;;16.60;4.50;;;;;;;12.70;73.22;99514.14;213276;1277;141286;-62
2022/05/22 04:27:20;;;;;;;4.30;3.10;;;;;;;12.79;73.30;99510.64;214135;1276;141024;-61
2022/05/22 04:32:23;;;;;;;3.70;2.00;;;;;;;13.41;72.52;99510.41;213816;1275;140823;-62
2022/05/22 04:37:26;;;;;;;2.30;2.10;;;;;;;14.29;71.48;99512.86;214997;1276;221740;-60
2022/05/22 04:42:28;;;;;;;3.60;2.10;;;;;;;14.64;70.43;99508.91;213664;1276;140026;-63
2022/05/22 04:47:31;;;;;;;2.20;1.50;;;;;;;14.65;69.80;99516.81;213637;1275;140187;-62
2022/05/22 04:52:34;;;;;;;3.20;1.70;;;;;;;14.62;69.64;99517.73;214436;1274;142730;-62
2022/05/22 04:57:37;;;;;;;4.70;1.70;;;;;;;14.57;69.50;99511.92;214116;1274;140526;-62
2022/05/22 05:02:41;;;;;;;2.50;1.30;;;;;;;14.68;68.90;99517.89;213859;1274;140425;-62
2022/05/22 05:07:45;;;;;;;2.80;2.20;;;;;;;14.79;68.33;99520.04;216075;1274;141679;-62
2022/05/22 05:12:48;;;;;;;1.80;1.70;;;;;;;14.40;68.28;99526.19;215457;1274;140926;-61
2022/05/22 05:17:51;;;;;;;2.20;1.30;;;;;;;14.09;68.25;99528.66;213802;1275;139753;-61
2022/05/22 05:22:54;;;;;;;2.70;2.20;;;;;;;13.89;68.59;99533.98;213773;1273;139174;-61
2022/05/22 05:27:56;;;;;;;2.40;1.60;;;;;;;13.86;68.77;99540.72;214590;1274;140202;-62
2022/05/22 05:33:00;;;;;;;1.90;1.70;;;;;;;13.80;68.94;99539.52;215240;1274;139346;-62
2022/05/22 05:38:04;;;;;;;1.80;1.60;;;;;;;13.72;69.09;99533.70;213791;1274;141017;-63
2022/05/22 05:43:06;;;;;;;2.40;1.70;;;;;;;13.85;69.10;99534.13;214041;1274;141696;-61
2022/05/22 05:48:14;;;;;;;2.10;1.90;;;;;;;13.99;68.46;99532.26;213443;1274;141508;-64
2022/05/22 05:53:17;;;;;;;2.00;1.80;;;;;;;15.07;67.90;99534.61;213308;1274;141429;-61
2022/05/22 05:58:20;;;;;;;3.10;1.60;;;;;;;15.78;67.52;99531.45;214879;1274;140451;-62
2022/05/22 06:03:44;;;;;;;2.60;1.80;;;;;;;15.70;66.59;99538.02;213650;1274;140144;-64
2022/05/22 06:08:48;;;;;;;1.40;1.30;;;;;;;15.78;65.60;99541.02;213764;1275;139331;-61
2022/05/22 06:13:52;;;;;;;4.20;1.80;;;;;;;15.69;65.47;99546.14;213518;1274;140077;-62
2022/05/22 06:18:55;;;;;;;1.40;1.40;;;;;;;15.57;65.25;99547.35;214582;1274;139977;-61
2022/05/22 06:24:02;;;;;;;1.40;1.20;;;;;;;15.77;65.06;99546.54;213774;1274;141060;-61
2022/05/22 06:29:04;;;;;;;2.00;1.40;;;;;;;15.89;64.46;99546.73;213341;1276;141376;-62
2022/05/22 06:34:07;;;;;;;1.70;1.40;;;;;;;15.94;64.48;99546.45;214102;1276;140142;-61
2022/05/22 06:44:31;;;;;;;1.30;1.30;;;;;;;17.49;62.76;99537.89;214162;1274;141224;-60
2022/05/22 06:49:35;;;;;;;3.60;1.40;;;;;;;18.36;61.21;99541.33;214430;1274;141042;-61
2022/05/22 06:54:38;;;;;;;1.20;1.10;;;;;;;18.30;60.20;99540.27;213341;1276;140713;-62
2022/05/22 06:59:42;;;;;;;2.40;1.40;;;;;;;17.95;59.79;99547.29;215808;1274;140186;-62
2022/05/22 07:04:45;;;;;;;2.10;0.80;;;;;;;17.46;59.40;99546.33;215664;1277;139457;-62
2022/05/22 07:09:48;;;;;;;2.10;1.20;;;;;;;17.07;59.57;99545.39;216059;1274;140772;-62
2022/05/22 07:14:56;;;;;;;1.40;1.30;;;;;;;16.79;59.90;99550.50;216076;1274;139399;-62
2022/05/22 07:20:00;;;;;;;2.80;2.60;;;;;;;16.66;60.26;99552.64;215218;1274;140661;-64
2022/05/22 07:25:03;;;;;;;2.70;2.50;;;;;;;16.18;60.31;99553.94;215214;1276;140397;-62
2022/05/22 07:30:08;;;;;;;3.00;2.30;;;;;;;16.02;60.97;99550.77;213598;1274;141292;-63
2022/05/22 07:35:12;;;;;;;2.40;2.30;;;;;;;16.14;61.45;99546.81;214541;1276;140449;-62
2022/05/22 07:40:16;;;;;;;3.90;2.80;;;;;;;16.34;61.39;99550.46;213587;1274;139878;-62
2022/05/22 07:45:19;;;;;;;4.20;2.40;;;;;;;17.06;61.34;99540.22;212957;1274;140223;-62
2022/05/22 07:50:24;;;;;;;4.10;2.00;;;;;;;17.26;60.82;99541.61;213211;1274;140262;-62
2022/05/22 07:55:26;;;;;;;3.50;2.00;;;;;;;16.97;60.08;99536.16;213299;1274;139228;-61
2022/05/22 08:00:30;;;;;;;3.40;2.70;;;;;;;16.60;60.00;99541.30;213666;1274;139623;-63
2022/05/22 08:05:34;;;;;;;2.20;2.00;;;;;;;16.42;60.30;99543.82;213351;1275;141972;-62
2022/05/22 08:10:39;;;;;;;2.20;2.10;;;;;;;16.42;60.79;99541.02;213174;1274;140491;-63
2022/05/22 08:15:43;;;;;;;3.20;2.90;;;;;;;16.29;60.62;99542.43;213639;1274;141268;-65
2022/05/22 08:20:47;;;;;;;2.80;2.20;;;;;;;16.09;60.64;99538.59;213393;1274;139660;-61
2022/05/22 08:25:50;;;;;;;2.90;2.60;;;;;;;15.92;60.67;99541.67;214500;1274;140013;-61
2022/05/22 08:30:53;;;;;;;2.50;2.30;;;;;;;15.73;60.71;99546.94;213989;1276;154005;-62
2022/05/22 08:35:56;;;;;;;4.70;2.50;;;;;;;15.45;61.03;99542.73;214463;1275;140629;-62
2022/05/22 08:41:27;;;;;;;3.60;2.30;;;;;;;15.25;61.34;99550.27;215834;1276;140909;-61
2022/05/22 08:46:54;;;;;;;2.80;2.60;;;;;;;15.13;61.81;99550.59;213841;1274;141079;-62
2022/05/22 08:52:23;;;;;;;2.70;2.50;;;;;;;15.04;62.05;99549.63;215047;1274;141827;-62
2022/05/22 09:03:37;;;;;;;2.40;1.40;;;;;;;14.56;62.82;99551.73;215852;1274;140241;-64
2022/05/22 09:08:47;;;;;;;3.00;2.80;;;;;;;14.27;63.14;99554.98;215473;1276;139172;-64
2022/05/22 09:14:10;;;;;;;5.50;2.60;;;;;;;14.04;63.72;99554.96;216193;1274;139642;-64
2022/05/22 09:19:24;;;;;;;4.60;3.30;;;;;;;13.89;64.10;99552.64;215459;1276;140662;-62
2022/05/22 09:24:47;;;;;;;2.40;2.30;;;;;;;13.82;64.41;99544.39;215254;1276;140438;-64
2022/05/22 09:29:56;;;;;;;4.20;2.80;;;;;;;13.82;64.86;99543.27;215198;1277;140217;-64
2022/05/22 09:35:25;;;;;;;4.30;3.10;;;;;;;13.89;65.15;99543.20;213579;1276;160702;-66
2022/05/22 09:40:39;;;;;;;4.10;2.40;;;;;;;13.98;65.32;99550.91;213403;1277;139110;-64
2022/05/22 09:46:19;;;;;;;3.50;1.80;;;;;;;14.04;64.69;99554.64;213488;1276;139282;-65
2022/05/22 09:51:44;;;;;;;1.50;1.30;;;;;;;14.20;64.22;99555.45;213455;1276;142276;-63
2022/05/22 09:56:50;;;;;;;2.10;1.70;;;;;;;14.71;64.22;99545.58;214299;1276;140441;-65
2022/05/22 10:01:56;;;;;;;3.70;1.90;;;;;;;15.36;64.03;99549.88;212930;1276;140887;-64
2022/05/22 10:07:06;;;;;;;2.40;2.10;;;;;;;16.41;64.01;99541.05;213154;1274;139924;-63
2022/05/22 10:12:39;;;;;;;1.80;1.70;;;;;;;17.23;62.53;99534.42;213167;1275;139169;-64
2022/05/22 10:18:09;;;;;;;1.70;1.40;;;;;;;17.18;60.91;99533.71;213688;1277;139519;-65
2022/05/22 10:23:48;;;;;;;2.00;1.80;;;;;;;16.60;60.37;99543.70;213610;1274;139850;-65
2022/05/22 10:29:03;;;;;;;1.90;1.70;;;;;;;15.89;60.31;99550.65;212700;1277;139078;-64
2022/05/22 10:34:15;;;;;;;1.60;1.50;;;;;;;15.42;60.71;99549.77;214164;1276;141232;-64
2022/05/22 10:39:21;;;;;;;2.40;2.20;;;;;;;15.12;61.31;99550.91;214621;1274;139060;-64
2022/05/22 10:44:30;;;;;;;2.10;1.30;;;;;;;15.06;61.51;99552.05;214942;1276;140246;-65
2022/05/22 10:49:42;;;;;;;3.30;1.70;;;;;;;15.21;61.58;99555.60;214220;1277;140276;-64
2022/05/22 10:54:51;;;;;;;1.50;1.40;;;;;;;15.46;61.08;99559.86;215500;1276;139654;-64
2022/05/22 10:59:54;;;;;;;2.80;1.20;;;;;;;15.85;60.65;99561.90;215641;1276;140863;-63
2022/05/22 11:05:22;;;;;;;2.60;1.20;;;;;;;16.47;59.95;99563.31;215808;1274;141141;-63
2022/05/22 11:10:35;;;;;;;2.50;1.30;;;;;;;16.94;59.43;99556.58;214488;1276;490262;-63
2022/05/22 11:15:42;;;;;;;2.60;1.10;;;;;;;17.09;58.54;99552.02;215739;1274;140449;-64
2022/05/22 11:21:07;;;;;;;;;;;;;;;17.17;58.32;99559.63;215981;1274;140890;-64
2022/05/22 11:26:30;;;;;;;4.70;1.20;;;;;;;17.14;57.91;99555.45;214918;1274;125599;-64
2022/05/22 11:32:02;;;;;;;1.20;1.20;;;;;;;17.11;56.91;99555.55;213704;1276;140601;-64
2022/05/22 11:37:28;;;;;;;0.90;0.90;;;;;;;17.49;57.02;99554.55;213118;1276;140500;-64
2022/05/22 11:42:36;;;;;;;3.40;1.40;;;;;;;17.51;56.06;99551.67;214457;1276;140030;-63
2022/05/22 11:47:55;;;;;;;1.20;0.80;;;;;;;17.24;55.73;99555.59;213630;1274;140061;-62
2022/05/22 11:53:32;;;;;;;2.60;1.60;;;;;;;16.94;55.80;99558.05;214311;1274;141025;-63
2022/05/22 11:59:07;;;;;;;2.00;1.30;;;;;;;16.55;56.43;99566.98;212923;1277;140399;-63
2022/05/22 12:04:39;;;;;;;2.10;1.50;;;;;;;16.22;56.75;99566.55;213206;1276;142670;-61
2022/05/22 12:10:14;;;;;;;1.20;1.00;;;;;;;15.99;57.08;99570.89;212309;1276;140852;-64
2022/05/22 12:15:27;;;;;;;1.00;1.00;;;;;;;16.07;57.44;99567.59;213730;1274;140190;-61
2022/05/22 12:20:46;;;;;;;2.30;1.20;;;;;;;16.23;57.48;99568.16;213418;1274;141039;-62
2022/05/22 12:25:54;;;;;;;1.20;1.20;;;;;;;16.29;57.26;99565.02;214414;1275;139841;-63
2022/05/22 12:30:59;;;;;;;2.10;1.10;;;;;;;16.37;56.90;99559.34;213388;1276;140715;-64
2022/05/22 12:36:08;;;;;;;1.30;1.20;;;;;;;16.29;56.85;99553.98;214247;1277;140820;-64
2022/05/22 12:41:17;;;;;;;1.40;1.30;;;;;;;16.21;56.87;99548.92;214703;1274;141875;-63
2022/05/22 12:46:27;;;;;;;2.50;1.10;;;;;;;16.39;57.02;99548.93;215404;1276;140322;-63
2022/05/22 12:51:35;;;;;;;5.00;1.00;;;;;;;16.91;56.90;99543.79;215193;1277;140595;-64
2022/05/22 12:56:42;;;;;;;2.20;0.90;;;;;;;17.21;56.50;99538.70;216098;1274;140131;-62
2022/05/22 13:01:56;;;;;;;1.30;1.20;;;;;;;17.12;55.85;99535.92;215859;1277;140485;-63
2022/05/22 13:07:14;;;;;;;3.00;0.90;;;;;;;17.14;56.05;99538.75;215995;1276;139939;-63
2022/05/22 13:12:18;;;;;;;2.10;1.00;;;;;;;17.23;55.62;99531.45;215337;1275;140253;-63
2022/05/22 13:17:35;;;;;;;5.20;1.30;;;;;;;17.28;55.37;99536.81;214821;1274;139955;-61
2022/05/22 13:22:42;;;;;;;15.80;1.10;;;;;;;17.32;55.12;99533.44;215096;1277;139330;-62
2022/05/22 13:27:46;;;;;;;1.10;0.70;;;;;;;17.23;54.82;99528.39;215310;1274;140218;-63
2022/05/22 13:32:56;;;;;;;4.90;0.90;;;;;;;17.04;54.82;99529.68;214216;1274;140000;-66
2022/05/22 13:38:12;;;;;;;0.70;0.70;;;;;;;16.80;54.66;99525.95;213897;1274;139049;-64
2022/05/22 13:44:07;;;;;;;4.00;1.00;;;;;;;16.64;54.50;99529.21;214606;1275;140893;-65
2022/05/22 13:49:26;;;;;;;1.10;0.60;;;;;;;16.76;54.79;99529.75;213025;1275;139308;-63
2022/05/22 13:54:48;;;;;;;0.60;0.60;;;;;;;17.05;54.64;99525.52;213894;1274;139675;-63
2022/05/22 14:00:22;;;;;;;0.90;0.40;;;;;;;17.23;54.15;99519.89;213462;1274;139608;-65
2022/05/22 14:05:38;;;;;;;0.80;0.80;;;;;;;17.19;53.76;99514.95;213823;1276;139942;-61
2022/05/22 14:11:01;;;;;;;4.00;0.80;;;;;;;17.02;53.68;99511.98;213764;1277;139436;-66
2022/05/22 14:16:11;;;;;;;0.70;0.70;;;;;;;16.92;53.75;99511.36;213569;1275;139843;-65
2022/05/22 14:21:18;;;;;;;1.50;1.00;;;;;;;16.85;53.86;99511.84;213207;1277;139084;-65
2022/05/22 14:26:23;;;;;;;0.60;0.60;;;;;;;16.79;54.04;99515.23;212909;1277;139951;-67
2022/05/22 14:31:31;;;;;;;1.00;0.70;;;;;;;16.72;54.36;99510.51;214289;1277;142177;-64
2022/05/22 14:36:36;;;;;;;1.00;0.90;;;;;;;16.72;54.30;99507.54;215499;1274;140995;-65
2022/05/22 14:41:40;;;;;;;0.80;0.70;;;;;;;16.75;54.38;99502.09;215396;1275;140309;-63
2022/05/22 14:46:52;;;;;;;0.90;0.80;;;;;;;16.81;54.08;99500.20;216055;1274;140590;-63
2022/05/22 14:52:13;;;;;;;0.70;0.70;;;;;;;16.87;53.89;99501.44;215391;1275;139979;-62
2022/05/22 14:57:31;;;;;;;4.50;0.70;;;;;;;16.87;53.81;99501.11;215986;1276;140221;-62
2022/05/22 15:03:15;;;;;;;0.50;0.50;;;;;;;16.85;53.79;99499.41;215552;1277;140386;-63
2022/05/22 15:08:29;;;;;;;0.50;0.50;;;;;;;16.84;53.61;99504.90;215789;1276;141643;-62
2022/05/22 15:13:55;;;;;;;0.30;0.30;;;;;;;16.83;53.13;99511.76;215339;1274;139580;-60
2022/05/22 15:19:48;;;;;;;0.60;0.60;;;;;;;16.74;52.71;99512.75;214148;1274;140200;-62
2022/05/22 15:30:17;;;;;;;0.90;0.70;;;;;;;16.45;52.65;99515.77;214423;1277;141487;-62
2022/05/22 15:35:23;;;;;;;2.60;1.60;;;;;;;16.38;52.98;99517.41;214038;1274;139503;-63
2022/05/22 15:40:28;;;;;;;2.60;1.00;;;;;;;16.39;53.22;99511.49;213885;1274;140221;-62
2022/05/22 15:45:32;;;;;;;3.50;0.70;;;;;;;16.49;53.54;99506.97;213426;1275;141694;-62
2022/05/22 15:50:44;;;;;;;2.30;1.00;;;;;;;16.55;53.27;99501.42;213409;1277;140318;-62
2022/05/22 15:55:49;;;;;;;1.30;1.10;;;;;;;16.53;53.24;99496.55;214082;1274;139572;-63
2022/05/22 16:01:00;;;;;;;1.50;1.40;;;;;;;16.45;53.17;99498.45;213670;1277;139908;-62
2022/05/22 16:06:04;;;;;;;1.40;1.00;;;;;;;16.28;53.37;99507.19;214359;1276;140235;-62
2022/05/22 16:11:08;;;;;;;0.50;0.50;;;;;;;16.14;53.66;99505.89;213131;1274;141786;-63
2022/05/22 16:16:22;;;;;;;0.50;0.50;;;;;;;16.07;53.74;99510.69;214007;1275;140281;-65
2022/05/22 16:21:27;;;;;;;0.60;0.60;;;;;;;15.90;53.76;99524.15;213397;1274;140592;-64
2022/05/22 16:26:30;;;;;;;1.30;0.70;;;;;;;15.59;54.27;99525.48;213314;1276;140603;-64
2022/05/22 16:31:37;;;;;;;1.00;0.90;;;;;;;15.42;55.19;99526.98;213763;1276;140840;-62
2022/05/22 16:36:41;;;;;;;1.00;0.60;;;;;;;15.38;55.84;99527.00;213591;1276;140467;-62
2022/05/22 16:41:48;;;;;;;1.30;1.10;;;;;;;15.31;56.22;99526.31;214605;1276;140631;-64
2022/05/22 16:46:53;;;;;;;;;;;;;;;15.22;56.48;99526.33;215678;1276;139828;-63
2022/05/22 16:57:20;;;;;;;1.10;1.00;;;;;;;15.11;57.10;99527.46;215788;1276;140466;-63
2022/05/22 17:02:26;;;;;;;1.30;0.80;;;;;;;15.10;57.21;99526.11;215669;1276;139561;-63
2022/05/22 17:07:30;;;;;;;0.70;0.70;;;;;;;15.08;57.54;99528.85;215696;1276;139707;-62
2022/05/22 17:12:34;;;;;;;1.20;1.10;;;;;;;15.09;57.57;99526.75;215502;1275;141024;-62
2022/05/22 17:17:38;;;;;;;2.40;1.40;;;;;;;15.10;57.74;99528.59;215045;1276;140850;-62
2022/05/22 17:22:41;;;;;;;1.10;1.10;;;;;;;15.07;57.91;99533.84;214250;1274;141166;-62
2022/05/22 17:27:52;;;;;;;1.90;1.10;;;;;;;15.02;57.91;99535.66;213982;1276;141265;-62
2022/05/22 17:32:58;;;;;;;1.10;0.50;;;;;;;14.96;58.04;99532.51;213639;1274;140787;-61
2022/05/22 17:38:11;;;;;;;1.90;1.20;;;;;;;14.88;58.17;99534.70;213495;1275;140967;-62
2022/05/22 17:43:17;;;;;;;1.00;1.00;;;;;;;14.85;58.23;99537.02;213652;1274;141121;-64
2022/05/22 17:48:22;;;;;;;1.30;1.00;;;;;;;14.83;58.25;99533.46;213197;1274;140567;-65
2022/05/22 17:53:26;;;;;;;1.00;0.90;;;;;;;14.82;57.81;99530.63;212956;1277;141566;-62
2022/05/22 17:58:29;;;;;;;0.90;0.90;;;;;;;14.72;57.57;99531.57;213794;1274;139472;-62
2022/05/22 18:03:35;;;;;;;2.40;1.10;;;;;;;14.60;57.77;99535.27;215516;1274;141854;-64
2022/05/22 18:08:38;;;;;;;1.40;1.30;;;;;;;14.41;57.63;99538.96;213156;1274;140324;-63
2022/05/22 18:19:05;;;;;;;1.20;1.20;;;;;;;14.09;57.72;99539.86;213166;1274;141100;-62
2022/05/22 18:29:48;;;;;;;0.80;0.80;;;;;;;13.69;58.08;99548.73;215063;1274;139717;-63
2022/05/22 18:34:52;;;;;;;1.10;1.00;;;;;;;13.52;58.92;99554.20;213005;1274;141123;-62
2022/05/22 18:40:00;;;;;;;1.50;1.30;;;;;;;13.30;59.27;99553.35;215890;1275;140427;-66
2022/05/22 18:45:06;;;;;;;1.40;1.30;;;;;;;13.18;59.42;99562.67;214052;1274;141108;-62
2022/05/22 18:50:10;;;;;;;2.50;1.30;;;;;;;13.07;59.68;99565.23;214757;1274;141400;-62
2022/05/22 18:55:15;;;;;;;2.40;2.20;;;;;;;12.82;60.02;99570.46;215109;1277;140086;-63
2022/05/22 19:00:25;;;;;;;3.90;1.70;;;;;;;12.67;60.96;99576.15;216009;1274;140778;-62
2022/05/22 19:05:35;;;;;;;2.10;1.10;;;;;;;12.59;61.22;99579.86;216048;1274;140417;-65
2022/05/22 19:10:42;;;;;;;4.70;1.90;;;;;;;12.46;61.91;99590.53;214874;1276;144033;-62
2022/05/22 19:15:45;;;;;;;5.80;3.50;;;;;;;12.46;62.34;99589.80;214216;1274;142975;-62
2022/05/22 19:20:50;;;;;;;6.10;3.90;;;;;;;12.47;62.91;99604.03;214568;1274;141962;-62
2022/05/22 19:26:00;;;;;;;5.10;2.70;;;;;;;12.43;63.28;99607.34;213333;1274;141026;-63
2022/05/22 19:31:06;;;;;;;2.50;2.10;;;;;;;12.32;63.86;99611.36;213563;1274;140530;-62
2022/05/22 19:36:10;;;;;;;3.20;2.50;;;;;;;12.24;63.99;99617.42;214182;1274;140502;-63
2022/05/22 19:46:40;;;;;;;4.00;2.70;;;;;;;12.15;63.64;99622.77;213974;1274;140424;-62
2022/05/22 19:51:45;;;;;;;3.50;2.70;;;;;;;12.13;64.02;99623.16;213934;1274;143736;-63
2022/05/22 20:02:12;;;;;;;2.20;2.00;;;;;;;12.03;64.10;99623.40;213768;1274;141074;-63
2022/05/22 20:07:16;;;;;;;3.30;3.00;;;;;;;11.94;64.05;99618.63;213248;1277;139570;-62
2022/05/22 20:12:19;;;;;;;2.60;2.20;;;;;;;11.83;64.41;99621.31;213218;1276;140817;-61
2022/05/22 20:17:28;;;;;;;4.30;2.50;;;;;;;11.75;64.56;99622.91;214210;1275;139413;-63
2022/05/22 20:22:32;;;;;;;2.50;2.30;;;;;;;11.67;64.78;99623.28;213865;1275;142657;-62
2022/05/22 20:27:37;;;;;;;6.10;2.70;;;;;;;11.54;64.91;99627.36;215156;1274;139407;-63
2022/05/22 20:32:42;;;;;;;4.30;3.40;;;;;;;11.41;65.07;99624.81;213679;1274;140397;-63
2022/05/22 20:37:45;;;;;;;3.60;2.50;;;;;;;11.32;65.20;99626.89;213503;1274;139402;-63
2022/05/22 20:42:50;;;;;;;6.80;3.00;;;;;;;11.25;65.31;99633.31;214156;1274;139996;-64
2022/05/22 20:47:59;;;;;;;4.00;2.60;;;;;;;11.22;65.44;99635.55;215837;1274;145629;-64
2022/05/22 20:53:03;;;;;;;3.60;2.90;;;;;;;11.11;65.43;99639.20;215713;1276;140890;-63
2022/05/22 20:58:08;;;;;;;3.40;2.80;;;;;;;10.97;65.48;99646.30;215765;1276;140078;-65
2022/05/22 21:03:13;;;;;;;3.50;2.60;;;;;;;10.84;65.64;99651.09;215966;1274;140983;-63
2022/05/22 21:08:23;;;;;;;3.90;3.50;;;;;;;10.77;65.65;99657.14;215742;1274;142036;-64
2022/05/22 21:13:26;;;;;;;3.00;2.80;;;;;;;10.69;65.89;99651.38;214925;1276;140147;-60
2022/05/22 21:18:30;;;;;;;4.40;3.60;;;;;;;10.60;65.98;99651.21;213544;1274;141852;-61
2022/05/22 21:28:56;;;;;;;4.60;3.70;;;;;;;10.28;66.20;99652.16;214553;1275;161757;-64
2022/05/22 21:33:59;;;;;;;3.60;3.20;;;;;;;10.10;65.95;99650.42;214273;1274;209889;-61
2022/05/22 21:39:02;;;;;;;5.20;3.00;;;;;;;9.87;66.39;99655.48;212852;1274;140095;-62
2022/05/22 21:44:07;;;;;;;3.70;3.20;;;;;;;9.70;66.77;99659.63;213416;1274;140966;-61
2022/05/22 21:49:12;;;;;;;4.20;3.80;;;;;;;9.52;67.27;99663.40;213591;1276;142403;-61
2022/05/22 21:54:15;;;;;;;5.60;3.30;;;;;;;9.41;67.21;99664.52;212997;1276;140799;-61
2022/05/22 21:59:19;;;;;;;4.00;3.40;;;;;;;9.34;67.48;99667.98;214106;1276;141111;-62
2022/05/22 22:04:22;;;;;;;4.30;3.20;;;;;;;9.25;67.56;99671.19;213274;1276;141763;-62
2022/05/22 22:09:25;;;;;;;5.70;4.20;;;;;;;9.11;67.83;99675.48;213238;1277;143402;-61
2022/05/22 22:14:28;;;;;;;3.80;3.30;;;;;;;9.00;68.21;99676.94;212916;1276;140520;-61
2022/05/22 22:19:30;;;;;;;4.90;4.10;;;;;;;8.92;67.93;99676.13;215154;1274;141202;-61
2022/05/22 22:24:33;;;;;;;9.00;4.00;;;;;;;8.79;68.04;99674.79;213908;1275;141612;-62
2022/05/22 22:29:36;;;;;;;3.90;3.50;;;;;;;8.69;68.51;99674.86;213497;1274;139979;-61
2022/05/22 22:34:39;;;;;;;4.50;4.10;;;;;;;8.62;68.60;99675.89;215085;1274;141640;-62
2022/05/22 22:39:41;;;;;;;4.10;3.70;;;;;;;8.59;68.58;99677.14;214757;1274;141380;-63
2022/05/22 22:44:44;;;;;;;4.80;4.20;;;;;;;8.47;68.57;99676.98;215216;1274;140679;-62
2022/05/22 22:49:48;;;;;;;5.20;4.10;;;;;;;8.22;68.50;99673.98;215884;1274;139832;-62
2022/05/22 23:00:17;;;;;;;6.10;4.10;;;;;;;7.88;69.35;99677.53;216004;1275;139618;-62
2022/05/22 23:05:22;;;;;;;6.00;4.40;;;;;;;7.80;69.19;99677.52;214928;1274;141175;-61
2022/05/22 23:10:25;;;;;;;4.40;3.30;;;;;;;7.72;69.46;99680.03;213860;1274;622382;-61
2022/05/22 23:15:28;;;;;;;4.90;3.70;;;;;;;7.61;69.72;99681.67;214747;1276;139367;-62
2022/05/22 23:20:32;;;;;;;5.90;3.80;;;;;;;7.46;70.06;99678.00;214695;1277;150567;-62
2022/05/22 23:25:37;;;;;;;4.90;3.50;;;;;;;7.37;70.34;99679.64;214466;1275;140861;-62
2022/05/22 23:30:41;;;;;;;5.50;4.30;;;;;;;7.36;70.51;99676.18;212977;1277;141335;-62
2022/05/22 23:35:43;;;;;;;4.10;3.80;;;;;;;7.29;70.60;99674.52;212840;1277;140496;-60
2022/05/22 23:40:45;;;;;;;7.80;3.70;;;;;;;7.12;70.40;99674.11;213408;1276;141507;-60
2022/05/22 23:45:48;;;;;;;5.30;3.50;;;;;;;6.91;70.25;99670.86;213914;1277;139203;-61
2022/05/22 23:50:50;;;;;;;4.70;4.10;;;;;;;6.84;71.03;99675.05;213198;1274;140142;-62
2022/05/22 23:55:53;;;;;;;4.70;4.10;;;;;;;6.83;70.93;99677.91;214759;1275;140630;-62
